sensor_id;sensor_type;location;lat;lon;timestamp;P1;durP1;ratioP1;P2;durP2;ratioP2
18449;SDS011;9354;50.194;7.690;2023-04-24T00:02:02;1.33;;;1.00;;
18449;SDS011;9354;50.194;7.690;2023-04-24T00:04:30;1.60;;;1.17;;
18449;SDS011;9354;50.194;7.690;2023-04-24T00:06:58;8.37;;;1.20;;
18449;SDS011;9354;50.194;7.690;2023-04-24T00:09:25;4.00;;;1.20;;
18449;SDS011;9354;50.194;7.690;2023-04-24T00:11:53;2.90;;;1.00;;
18449;SDS011;9354;50.194;7.690;2023-04-24T00:14:21;3.27;;;1.20;;
18449;SDS011;9354;50.194;7.690;2023-04-24T00:16:48;2.87;;;1.37;;
18449;SDS011;9354;50.194;7.690;2023-04-24T00:19:16;2.93;;;1.50;;
18449;SDS011;9354;50.194;7.690;2023-04-24T00:21:48;4.07;;;1.60;;
18449;SDS011;9354;50.194;7.690;2023-04-24T00:24:16;3.00;;;1.50;;
18449;SDS011;9354;50.194;7.690;2023-04-24T00:26:43;2.93;;;1.83;;
18449;SDS011;9354;50.194;7.690;2023-04-24T00:29:11;3.60;;;1.80;;
18449;SDS011;9354;50.194;7.690;2023-04-24T00:31:38;5.87;;;2.40;;
18449;SDS011;9354;50.194;7.690;2023-04-24T00:34:06;5.47;;;2.10;;
18449;SDS011;9354;50.194;7.690;2023-04-24T00:36:33;5.33;;;2.60;;
18449;SDS011;9354;50.194;7.690;2023-04-24T00:39:02;4.47;;;2.50;;
18449;SDS011;9354;50.194;7.690;2023-04-24T00:41:30;2.77;;;2.20;;
18449;SDS011;9354;50.194;7.690;2023-04-24T00:43:57;3.87;;;2.30;;
18449;SDS011;9354;50.194;7.690;2023-04-24T00:46:24;5.00;;;2.67;;
18449;SDS011;9354;50.194;7.690;2023-04-24T00:48:52;6.80;;;2.03;;
18449;SDS011;9354;50.194;7.690;2023-04-24T00:51:19;3.93;;;1.97;;
18449;SDS011;9354;50.194;7.690;2023-04-24T00:53:47;1.73;;;1.40;;
18449;SDS011;9354;50.194;7.690;2023-04-24T00:56:15;2.20;;;1.13;;
18449;SDS011;9354;50.194;7.690;2023-04-24T00:58:43;1.83;;;0.80;;
18449;SDS011;9354;50.194;7.690;2023-04-24T01:01:11;1.43;;;0.57;;
18449;SDS011;9354;50.194;7.690;2023-04-24T01:03:39;2.10;;;0.57;;
18449;SDS011;9354;50.194;7.690;2023-04-24T01:06:07;1.17;;;0.60;;
18449;SDS011;9354;50.194;7.690;2023-04-24T01:08:36;1.47;;;0.47;;
18449;SDS011;9354;50.194;7.690;2023-04-24T01:11:04;0.40;;;0.40;;
18449;SDS011;9354;50.194;7.690;2023-04-24T01:13:33;0.30;;;0.30;;
18449;SDS011;9354;50.194;7.690;2023-04-24T01:16:01;0.73;;;0.50;;
18449;SDS011;9354;50.194;7.690;2023-04-24T01:18:29;0.73;;;0.40;;
18449;SDS011;9354;50.194;7.690;2023-04-24T01:20:57;0.90;;;0.40;;
18449;SDS011;9354;50.194;7.690;2023-04-24T01:23:27;1.03;;;0.40;;
18449;SDS011;9354;50.194;7.690;2023-04-24T01:25:54;0.50;;;0.40;;
18449;SDS011;9354;50.194;7.690;2023-04-24T01:28:22;1.37;;;0.33;;
18449;SDS011;9354;50.194;7.690;2023-04-24T01:30:49;1.33;;;0.50;;
18449;SDS011;9354;50.194;7.690;2023-04-24T01:33:17;0.40;;;0.40;;
18449;SDS011;9354;50.194;7.690;2023-04-24T01:35:46;2.07;;;0.47;;
18449;SDS011;9354;50.194;7.690;2023-04-24T01:38:13;0.60;;;0.53;;
18449;SDS011;9354;50.194;7.690;2023-04-24T01:40:42;1.40;;;0.43;;
18449;SDS011;9354;50.194;7.690;2023-04-24T01:43:10;0.70;;;0.60;;
18449;SDS011;9354;50.194;7.690;2023-04-24T01:45:38;0.90;;;0.67;;
18449;SDS011;9354;50.194;7.690;2023-04-24T01:48:06;1.63;;;0.70;;
18449;SDS011;9354;50.194;7.690;2023-04-24T01:50:33;0.70;;;0.60;;
18449;SDS011;9354;50.194;7.690;2023-04-24T01:53:01;0.80;;;0.80;;
18449;SDS011;9354;50.194;7.690;2023-04-24T01:55:29;1.30;;;0.80;;
18449;SDS011;9354;50.194;7.690;2023-04-24T01:57:58;0.80;;;0.77;;
18449;SDS011;9354;50.194;7.690;2023-04-24T02:00:27;1.77;;;0.90;;
18449;SDS011;9354;50.194;7.690;2023-04-24T02:02:55;3.07;;;1.00;;
18449;SDS011;9354;50.194;7.690;2023-04-24T02:05:22;2.50;;;1.00;;
18449;SDS011;9354;50.194;7.690;2023-04-24T02:07:50;1.23;;;0.90;;
18449;SDS011;9354;50.194;7.690;2023-04-24T02:10:17;0.87;;;0.60;;
18449;SDS011;9354;50.194;7.690;2023-04-24T02:12:44;1.60;;;1.50;;
18449;SDS011;9354;50.194;7.690;2023-04-24T02:15:13;1.00;;;0.87;;
18449;SDS011;9354;50.194;7.690;2023-04-24T02:17:41;1.20;;;0.73;;
18449;SDS011;9354;50.194;7.690;2023-04-24T02:20:08;1.00;;;0.90;;
18449;SDS011;9354;50.194;7.690;2023-04-24T02:22:36;1.17;;;1.00;;
18449;SDS011;9354;50.194;7.690;2023-04-24T02:25:03;1.53;;;1.20;;
18449;SDS011;9354;50.194;7.690;2023-04-24T02:27:32;1.77;;;1.30;;
18449;SDS011;9354;50.194;7.690;2023-04-24T02:29:59;1.73;;;1.20;;
18449;SDS011;9354;50.194;7.690;2023-04-24T02:32:28;1.53;;;0.97;;
18449;SDS011;9354;50.194;7.690;2023-04-24T02:34:56;1.67;;;1.10;;
18449;SDS011;9354;50.194;7.690;2023-04-24T02:37:23;2.00;;;1.00;;
18449;SDS011;9354;50.194;7.690;2023-04-24T02:39:51;1.93;;;1.10;;
18449;SDS011;9354;50.194;7.690;2023-04-24T02:42:18;2.47;;;1.10;;
18449;SDS011;9354;50.194;7.690;2023-04-24T02:44:46;1.53;;;1.23;;
18449;SDS011;9354;50.194;7.690;2023-04-24T02:47:13;6.17;;;1.27;;
18449;SDS011;9354;50.194;7.690;2023-04-24T02:49:42;2.67;;;1.40;;
18449;SDS011;9354;50.194;7.690;2023-04-24T02:52:09;1.97;;;1.20;;
18449;SDS011;9354;50.194;7.690;2023-04-24T02:54:37;2.00;;;1.20;;
18449;SDS011;9354;50.194;7.690;2023-04-24T02:57:04;4.90;;;1.47;;
18449;SDS011;9354;50.194;7.690;2023-04-24T02:59:31;3.87;;;1.33;;
18449;SDS011;9354;50.194;7.690;2023-04-24T03:01:59;1.83;;;1.17;;
18449;SDS011;9354;50.194;7.690;2023-04-24T03:04:26;3.50;;;1.40;;
18449;SDS011;9354;50.194;7.690;2023-04-24T03:06:55;3.50;;;1.40;;
18449;SDS011;9354;50.194;7.690;2023-04-24T03:09:23;1.47;;;1.00;;
18449;SDS011;9354;50.194;7.690;2023-04-24T03:11:50;4.50;;;1.37;;
18449;SDS011;9354;50.194;7.690;2023-04-24T03:14:17;1.50;;;1.10;;
18449;SDS011;9354;50.194;7.690;2023-04-24T03:16:45;3.23;;;1.37;;
18449;SDS011;9354;50.194;7.690;2023-04-24T03:19:12;2.27;;;1.40;;
18449;SDS011;9354;50.194;7.690;2023-04-24T03:21:40;3.47;;;1.53;;
18449;SDS011;9354;50.194;7.690;2023-04-24T03:24:09;1.77;;;1.43;;
18449;SDS011;9354;50.194;7.690;2023-04-24T03:26:36;1.90;;;1.30;;
18449;SDS011;9354;50.194;7.690;2023-04-24T03:29:03;3.37;;;1.57;;
18449;SDS011;9354;50.194;7.690;2023-04-24T03:31:31;2.43;;;1.50;;
18449;SDS011;9354;50.194;7.690;2023-04-24T03:33:58;2.30;;;1.33;;
18449;SDS011;9354;50.194;7.690;2023-04-24T03:36:25;1.70;;;1.30;;
18449;SDS011;9354;50.194;7.690;2023-04-24T03:38:53;2.33;;;1.37;;
18449;SDS011;9354;50.194;7.690;2023-04-24T03:41:22;2.13;;;1.40;;
18449;SDS011;9354;50.194;7.690;2023-04-24T03:43:49;2.60;;;1.50;;
18449;SDS011;9354;50.194;7.690;2023-04-24T03:46:17;3.50;;;1.70;;
18449;SDS011;9354;50.194;7.690;2023-04-24T03:48:44;2.90;;;1.93;;
18449;SDS011;9354;50.194;7.690;2023-04-24T03:51:11;3.60;;;1.70;;
18449;SDS011;9354;50.194;7.690;2023-04-24T03:53:39;2.50;;;1.97;;
18449;SDS011;9354;50.194;7.690;2023-04-24T03:56:06;2.63;;;1.67;;
18449;SDS011;9354;50.194;7.690;2023-04-24T03:58:35;3.17;;;1.37;;
18449;SDS011;9354;50.194;7.690;2023-04-24T04:01:02;3.17;;;1.77;;
18449;SDS011;9354;50.194;7.690;2023-04-24T04:03:31;2.20;;;1.50;;
18449;SDS011;9354;50.194;7.690;2023-04-24T04:05:58;3.40;;;2.00;;
18449;SDS011;9354;50.194;7.690;2023-04-24T04:08:26;2.47;;;1.67;;
18449;SDS011;9354;50.194;7.690;2023-04-24T04:10:55;2.10;;;1.47;;
18449;SDS011;9354;50.194;7.690;2023-04-24T04:13:22;4.77;;;1.97;;
18449;SDS011;9354;50.194;7.690;2023-04-24T04:15:51;2.80;;;1.47;;
18449;SDS011;9354;50.194;7.690;2023-04-24T04:18:18;3.83;;;1.60;;
18449;SDS011;9354;50.194;7.690;2023-04-24T04:20:46;4.73;;;1.93;;
18449;SDS011;9354;50.194;7.690;2023-04-24T04:23:13;4.93;;;2.50;;
18449;SDS011;9354;50.194;7.690;2023-04-24T04:25:40;4.07;;;2.00;;
18449;SDS011;9354;50.194;7.690;2023-04-24T04:28:08;3.47;;;2.13;;
18449;SDS011;9354;50.194;7.690;2023-04-24T04:30:35;5.00;;;2.30;;
18449;SDS011;9354;50.194;7.690;2023-04-24T04:33:05;5.30;;;2.40;;
18449;SDS011;9354;50.194;7.690;2023-04-24T04:35:33;6.57;;;2.50;;
18449;SDS011;9354;50.194;7.690;2023-04-24T04:38:01;4.60;;;2.13;;
18449;SDS011;9354;50.194;7.690;2023-04-24T04:40:30;6.97;;;2.30;;
18449;SDS011;9354;50.194;7.690;2023-04-24T04:42:57;6.07;;;2.50;;
18449;SDS011;9354;50.194;7.690;2023-04-24T04:45:24;6.80;;;2.30;;
18449;SDS011;9354;50.194;7.690;2023-04-24T04:47:52;3.43;;;2.00;;
18449;SDS011;9354;50.194;7.690;2023-04-24T04:50:22;3.57;;;2.60;;
18449;SDS011;9354;50.194;7.690;2023-04-24T04:52:49;6.07;;;2.40;;
18449;SDS011;9354;50.194;7.690;2023-04-24T04:55:17;4.97;;;2.70;;
18449;SDS011;9354;50.194;7.690;2023-04-24T04:57:45;4.10;;;2.07;;
18449;SDS011;9354;50.194;7.690;2023-04-24T05:00:13;5.13;;;2.47;;
18449;SDS011;9354;50.194;7.690;2023-04-24T05:02:41;6.07;;;2.70;;
18449;SDS011;9354;50.194;7.690;2023-04-24T05:05:08;20.93;;;10.73;;
18449;SDS011;9354;50.194;7.690;2023-04-24T05:07:37;15.73;;;7.87;;
18449;SDS011;9354;50.194;7.690;2023-04-24T05:10:05;13.00;;;6.97;;
18449;SDS011;9354;50.194;7.690;2023-04-24T05:12:33;6.07;;;3.00;;
18449;SDS011;9354;50.194;7.690;2023-04-24T05:15:00;6.50;;;3.10;;
18449;SDS011;9354;50.194;7.690;2023-04-24T05:17:28;6.93;;;4.00;;
18449;SDS011;9354;50.194;7.690;2023-04-24T05:19:55;5.83;;;3.23;;
18449;SDS011;9354;50.194;7.690;2023-04-24T05:22:23;5.97;;;3.30;;
18449;SDS011;9354;50.194;7.690;2023-04-24T05:24:51;5.90;;;3.83;;
18449;SDS011;9354;50.194;7.690;2023-04-24T05:27:19;6.07;;;3.77;;
18449;SDS011;9354;50.194;7.690;2023-04-24T05:29:47;9.87;;;3.63;;
18449;SDS011;9354;50.194;7.690;2023-04-24T05:32:14;7.23;;;3.90;;
18449;SDS011;9354;50.194;7.690;2023-04-24T05:34:42;6.53;;;3.50;;
18449;SDS011;9354;50.194;7.690;2023-04-24T05:37:09;9.93;;;4.10;;
18449;SDS011;9354;50.194;7.690;2023-04-24T05:39:36;7.90;;;4.10;;
18449;SDS011;9354;50.194;7.690;2023-04-24T05:42:05;10.33;;;4.17;;
18449;SDS011;9354;50.194;7.690;2023-04-24T05:44:33;8.33;;;4.20;;
18449;SDS011;9354;50.194;7.690;2023-04-24T05:47:00;11.10;;;4.20;;
18449;SDS011;9354;50.194;7.690;2023-04-24T05:49:28;7.17;;;4.03;;
18449;SDS011;9354;50.194;7.690;2023-04-24T05:51:55;8.67;;;4.40;;
18449;SDS011;9354;50.194;7.690;2023-04-24T05:54:23;7.03;;;4.00;;
18449;SDS011;9354;50.194;7.690;2023-04-24T05:56:50;8.23;;;4.40;;
18449;SDS011;9354;50.194;7.690;2023-04-24T05:59:21;8.10;;;4.20;;
18449;SDS011;9354;50.194;7.690;2023-04-24T06:01:48;7.30;;;3.90;;
18449;SDS011;9354;50.194;7.690;2023-04-24T06:04:16;7.30;;;4.00;;
18449;SDS011;9354;50.194;7.690;2023-04-24T06:06:43;8.77;;;3.90;;
18449;SDS011;9354;50.194;7.690;2023-04-24T06:09:11;7.57;;;4.37;;
18449;SDS011;9354;50.194;7.690;2023-04-24T06:11:38;11.70;;;4.87;;
18449;SDS011;9354;50.194;7.690;2023-04-24T06:14:05;6.80;;;4.40;;
18449;SDS011;9354;50.194;7.690;2023-04-24T06:16:34;8.37;;;4.63;;
18449;SDS011;9354;50.194;7.690;2023-04-24T06:19:02;8.70;;;3.80;;
18449;SDS011;9354;50.194;7.690;2023-04-24T06:21:29;9.53;;;4.60;;
18449;SDS011;9354;50.194;7.690;2023-04-24T06:23:57;7.90;;;4.20;;
18449;SDS011;9354;50.194;7.690;2023-04-24T06:26:24;7.63;;;4.60;;
18449;SDS011;9354;50.194;7.690;2023-04-24T06:28:52;6.27;;;3.87;;
18449;SDS011;9354;50.194;7.690;2023-04-24T06:31:20;7.27;;;4.00;;
18449;SDS011;9354;50.194;7.690;2023-04-24T06:33:49;8.60;;;4.30;;
18449;SDS011;9354;50.194;7.690;2023-04-24T06:36:16;9.03;;;4.53;;
18449;SDS011;9354;50.194;7.690;2023-04-24T06:38:44;9.17;;;3.83;;
18449;SDS011;9354;50.194;7.690;2023-04-24T06:41:11;7.47;;;4.13;;
18449;SDS011;9354;50.194;7.690;2023-04-24T06:43:39;6.10;;;4.03;;
18449;SDS011;9354;50.194;7.690;2023-04-24T06:46:07;9.97;;;4.70;;
18449;SDS011;9354;50.194;7.690;2023-04-24T06:48:34;7.27;;;4.30;;
18449;SDS011;9354;50.194;7.690;2023-04-24T06:51:03;7.77;;;4.40;;
18449;SDS011;9354;50.194;7.690;2023-04-24T06:53:30;7.27;;;3.50;;
18449;SDS011;9354;50.194;7.690;2023-04-24T06:55:58;8.13;;;4.20;;
18449;SDS011;9354;50.194;7.690;2023-04-24T06:58:26;7.07;;;3.73;;
18449;SDS011;9354;50.194;7.690;2023-04-24T07:00:53;5.73;;;3.40;;
18449;SDS011;9354;50.194;7.690;2023-04-24T07:03:20;7.47;;;3.90;;
18449;SDS011;9354;50.194;7.690;2023-04-24T07:05:48;7.07;;;4.17;;
18449;SDS011;9354;50.194;7.690;2023-04-24T07:08:18;5.30;;;3.30;;
18449;SDS011;9354;50.194;7.690;2023-04-24T07:10:46;6.67;;;3.60;;
18449;SDS011;9354;50.194;7.690;2023-04-24T07:13:14;5.70;;;3.47;;
18449;SDS011;9354;50.194;7.690;2023-04-24T07:15:41;6.40;;;4.73;;
18449;SDS011;9354;50.194;7.690;2023-04-24T07:18:08;6.23;;;3.33;;
18449;SDS011;9354;50.194;7.690;2023-04-24T07:20:36;7.03;;;4.33;;
18449;SDS011;9354;50.194;7.690;2023-04-24T07:23:03;6.37;;;3.50;;
18449;SDS011;9354;50.194;7.690;2023-04-24T07:25:32;6.20;;;3.40;;
18449;SDS011;9354;50.194;7.690;2023-04-24T07:28:00;5.37;;;3.37;;
18449;SDS011;9354;50.194;7.690;2023-04-24T07:30:27;7.67;;;3.87;;
18449;SDS011;9354;50.194;7.690;2023-04-24T07:32:55;7.20;;;3.10;;
18449;SDS011;9354;50.194;7.690;2023-04-24T07:35:23;6.63;;;3.20;;
18449;SDS011;9354;50.194;7.690;2023-04-24T07:37:51;4.27;;;2.80;;
18449;SDS011;9354;50.194;7.690;2023-04-24T07:40:19;6.50;;;3.20;;
18449;SDS011;9354;50.194;7.690;2023-04-24T07:42:48;6.23;;;3.30;;
18449;SDS011;9354;50.194;7.690;2023-04-24T07:45:15;5.57;;;3.40;;
18449;SDS011;9354;50.194;7.690;2023-04-24T07:47:43;5.00;;;2.83;;
18449;SDS011;9354;50.194;7.690;2023-04-24T07:50:11;5.37;;;3.10;;
18449;SDS011;9354;50.194;7.690;2023-04-24T07:52:39;6.07;;;2.80;;
18449;SDS011;9354;50.194;7.690;2023-04-24T07:55:06;9.77;;;3.00;;
18449;SDS011;9354;50.194;7.690;2023-04-24T07:57:34;5.53;;;2.40;;
18449;SDS011;9354;50.194;7.690;2023-04-24T08:00:06;4.80;;;2.60;;
18449;SDS011;9354;50.194;7.690;2023-04-24T08:02:34;4.77;;;2.80;;
18449;SDS011;9354;50.194;7.690;2023-04-24T08:05:02;4.60;;;2.37;;
18449;SDS011;9354;50.194;7.690;2023-04-24T08:07:30;6.57;;;2.53;;
18449;SDS011;9354;50.194;7.690;2023-04-24T08:09:57;4.23;;;2.40;;
18449;SDS011;9354;50.194;7.690;2023-04-24T08:12:25;3.63;;;2.30;;
18449;SDS011;9354;50.194;7.690;2023-04-24T08:14:54;2.87;;;2.10;;
18449;SDS011;9354;50.194;7.690;2023-04-24T08:17:23;6.90;;;2.53;;
18449;SDS011;9354;50.194;7.690;2023-04-24T08:19:51;4.87;;;2.20;;
18449;SDS011;9354;50.194;7.690;2023-04-24T08:22:24;3.60;;;2.17;;
18449;SDS011;9354;50.194;7.690;2023-04-24T08:24:52;3.17;;;2.20;;
18449;SDS011;9354;50.194;7.690;2023-04-24T08:27:19;3.77;;;1.90;;
18449;SDS011;9354;50.194;7.690;2023-04-24T08:29:46;2.83;;;1.90;;
18449;SDS011;9354;50.194;7.690;2023-04-24T08:32:14;2.70;;;1.73;;
18449;SDS011;9354;50.194;7.690;2023-04-24T08:34:42;2.50;;;1.70;;
18449;SDS011;9354;50.194;7.690;2023-04-24T08:37:10;4.40;;;2.20;;
18449;SDS011;9354;50.194;7.690;2023-04-24T08:39:38;4.90;;;1.97;;
18449;SDS011;9354;50.194;7.690;2023-04-24T08:42:05;3.20;;;1.93;;
18449;SDS011;9354;50.194;7.690;2023-04-24T08:44:33;8.20;;;3.00;;
18449;SDS011;9354;50.194;7.690;2023-04-24T08:47:02;8.00;;;2.93;;
18449;SDS011;9354;50.194;7.690;2023-04-24T08:49:30;7.87;;;2.93;;
18449;SDS011;9354;50.194;7.690;2023-04-24T08:51:59;3.87;;;1.73;;
18449;SDS011;9354;50.194;7.690;2023-04-24T08:54:28;5.17;;;2.67;;
18449;SDS011;9354;50.194;7.690;2023-04-24T08:56:57;3.87;;;1.90;;
18449;SDS011;9354;50.194;7.690;2023-04-24T08:59:27;10.37;;;4.33;;
18449;SDS011;9354;50.194;7.690;2023-04-24T09:01:55;4.93;;;2.60;;
18449;SDS011;9354;50.194;7.690;2023-04-24T09:04:23;4.80;;;2.90;;
18449;SDS011;9354;50.194;7.690;2023-04-24T09:06:51;9.60;;;3.60;;
18449;SDS011;9354;50.194;7.690;2023-04-24T09:09:24;4.10;;;2.30;;
18449;SDS011;9354;50.194;7.690;2023-04-24T09:11:52;11.37;;;4.43;;
18449;SDS011;9354;50.194;7.690;2023-04-24T09:14:21;3.97;;;2.33;;
18449;SDS011;9354;50.194;7.690;2023-04-24T09:16:49;4.77;;;2.30;;
18449;SDS011;9354;50.194;7.690;2023-04-24T09:19:16;3.03;;;1.90;;
18449;SDS011;9354;50.194;7.690;2023-04-24T09:21:45;4.83;;;1.80;;
18449;SDS011;9354;50.194;7.690;2023-04-24T09:24:15;4.80;;;2.60;;
18449;SDS011;9354;50.194;7.690;2023-04-24T09:26:47;3.10;;;1.70;;
18449;SDS011;9354;50.194;7.690;2023-04-24T09:29:15;5.70;;;2.70;;
18449;SDS011;9354;50.194;7.690;2023-04-24T09:31:44;1.97;;;1.27;;
18449;SDS011;9354;50.194;7.690;2023-04-24T09:34:12;1.90;;;1.20;;
18449;SDS011;9354;50.194;7.690;2023-04-24T09:36:40;1.47;;;1.20;;
18449;SDS011;9354;50.194;7.690;2023-04-24T09:39:09;1.20;;;1.00;;
18449;SDS011;9354;50.194;7.690;2023-04-24T09:41:43;2.97;;;1.57;;
18449;SDS011;9354;50.194;7.690;2023-04-24T09:44:13;4.57;;;1.47;;
18449;SDS011;9354;50.194;7.690;2023-04-24T09:46:42;2.03;;;1.70;;
18449;SDS011;9354;50.194;7.690;2023-04-24T09:49:11;2.27;;;1.30;;
18449;SDS011;9354;50.194;7.690;2023-04-24T09:51:40;2.20;;;1.50;;
18449;SDS011;9354;50.194;7.690;2023-04-24T09:54:13;4.47;;;1.80;;
18449;SDS011;9354;50.194;7.690;2023-04-24T09:56:43;2.40;;;1.60;;
18449;SDS011;9354;50.194;7.690;2023-04-24T09:59:13;2.77;;;1.67;;
18449;SDS011;9354;50.194;7.690;2023-04-24T10:01:41;3.30;;;1.60;;
18449;SDS011;9354;50.194;7.690;2023-04-24T10:04:16;4.13;;;2.03;;
18449;SDS011;9354;50.194;7.690;2023-04-24T10:06:45;5.07;;;1.70;;
18449;SDS011;9354;50.194;7.690;2023-04-24T10:09:14;2.87;;;1.70;;
18449;SDS011;9354;50.194;7.690;2023-04-24T10:11:42;2.47;;;1.90;;
18449;SDS011;9354;50.194;7.690;2023-04-24T10:14:13;3.73;;;1.93;;
18449;SDS011;9354;50.194;7.690;2023-04-24T10:16:42;4.23;;;2.20;;
18449;SDS011;9354;50.194;7.690;2023-04-24T10:19:12;3.93;;;1.90;;
18449;SDS011;9354;50.194;7.690;2023-04-24T10:21:40;4.73;;;2.23;;
18449;SDS011;9354;50.194;7.690;2023-04-24T10:24:11;7.00;;;2.90;;
18449;SDS011;9354;50.194;7.690;2023-04-24T10:26:40;3.33;;;2.30;;
18449;SDS011;9354;50.194;7.690;2023-04-24T10:29:07;4.43;;;2.50;;
18449;SDS011;9354;50.194;7.690;2023-04-24T10:31:39;4.00;;;2.50;;
18449;SDS011;9354;50.194;7.690;2023-04-24T10:34:07;4.17;;;2.27;;
18449;SDS011;9354;50.194;7.690;2023-04-24T10:36:37;5.10;;;2.40;;
18449;SDS011;9354;50.194;7.690;2023-04-24T10:39:11;3.47;;;2.30;;
18449;SDS011;9354;50.194;7.690;2023-04-24T10:41:40;8.20;;;3.00;;
18449;SDS011;9354;50.194;7.690;2023-04-24T10:44:08;5.30;;;2.23;;
18449;SDS011;9354;50.194;7.690;2023-04-24T10:46:36;4.73;;;2.53;;
18449;SDS011;9354;50.194;7.690;2023-04-24T10:49:06;5.40;;;2.80;;
18449;SDS011;9354;50.194;7.690;2023-04-24T10:51:47;3.67;;;2.40;;
18449;SDS011;9354;50.194;7.690;2023-04-24T10:54:24;3.30;;;2.10;;
18449;SDS011;9354;50.194;7.690;2023-04-24T10:56:53;4.80;;;2.40;;
18449;SDS011;9354;50.194;7.690;2023-04-24T11:02:40;5.00;;;2.80;;
18449;SDS011;9354;50.194;7.690;2023-04-24T11:05:14;7.33;;;2.60;;
18449;SDS011;9354;50.194;7.690;2023-04-24T11:10:43;10.03;;;2.63;;
18449;SDS011;9354;50.194;7.690;2023-04-24T11:13:14;4.60;;;2.43;;
18449;SDS011;9354;50.194;7.690;2023-04-24T11:15:41;5.27;;;2.60;;
18449;SDS011;9354;50.194;7.690;2023-04-24T11:18:14;8.37;;;2.70;;
18449;SDS011;9354;50.194;7.690;2023-04-24T11:20:42;3.50;;;2.53;;
18449;SDS011;9354;50.194;7.690;2023-04-24T11:23:11;5.37;;;2.80;;
18449;SDS011;9354;50.194;7.690;2023-04-24T11:25:39;5.60;;;2.87;;
18449;SDS011;9354;50.194;7.690;2023-04-24T11:28:08;5.63;;;2.60;;
18449;SDS011;9354;50.194;7.690;2023-04-24T11:30:42;11.07;;;3.50;;
18449;SDS011;9354;50.194;7.690;2023-04-24T11:33:09;5.27;;;2.67;;
18449;SDS011;9354;50.194;7.690;2023-04-24T11:35:40;7.07;;;3.60;;
18449;SDS011;9354;50.194;7.690;2023-04-24T11:38:07;7.57;;;4.03;;
18449;SDS011;9354;50.194;7.690;2023-04-24T11:40:37;5.80;;;3.40;;
18449;SDS011;9354;50.194;7.690;2023-04-24T11:43:04;6.17;;;4.00;;
18449;SDS011;9354;50.194;7.690;2023-04-24T11:45:32;6.00;;;3.33;;
18449;SDS011;9354;50.194;7.690;2023-04-24T11:47:59;6.70;;;3.37;;
18449;SDS011;9354;50.194;7.690;2023-04-24T11:50:27;10.37;;;4.37;;
18449;SDS011;9354;50.194;7.690;2023-04-24T11:52:56;8.43;;;4.00;;
18449;SDS011;9354;50.194;7.690;2023-04-24T11:55:26;7.77;;;3.67;;
18449;SDS011;9354;50.194;7.690;2023-04-24T11:57:55;5.47;;;3.40;;
18449;SDS011;9354;50.194;7.690;2023-04-24T12:00:24;6.27;;;3.57;;
18449;SDS011;9354;50.194;7.690;2023-04-24T12:03:02;10.83;;;3.20;;
18449;SDS011;9354;50.194;7.690;2023-04-24T12:05:32;8.50;;;3.43;;
18449;SDS011;9354;50.194;7.690;2023-04-24T12:08:01;4.70;;;3.00;;
18449;SDS011;9354;50.194;7.690;2023-04-24T12:10:29;8.63;;;4.17;;
18449;SDS011;9354;50.194;7.690;2023-04-24T12:12:57;7.13;;;3.87;;
18449;SDS011;9354;50.194;7.690;2023-04-24T12:15:26;7.50;;;4.00;;
18449;SDS011;9354;50.194;7.690;2023-04-24T12:17:54;8.63;;;3.97;;
18449;SDS011;9354;50.194;7.690;2023-04-24T12:20:23;9.90;;;4.60;;
18449;SDS011;9354;50.194;7.690;2023-04-24T12:22:53;7.97;;;4.17;;
18449;SDS011;9354;50.194;7.690;2023-04-24T12:25:24;11.67;;;5.27;;
18449;SDS011;9354;50.194;7.690;2023-04-24T12:27:53;8.57;;;4.60;;
18449;SDS011;9354;50.194;7.690;2023-04-24T12:30:21;13.23;;;4.43;;
18449;SDS011;9354;50.194;7.690;2023-04-24T12:32:56;11.03;;;4.60;;
18449;SDS011;9354;50.194;7.690;2023-04-24T12:35:24;12.73;;;5.33;;
18449;SDS011;9354;50.194;7.690;2023-04-24T12:37:54;7.30;;;4.07;;
18449;SDS011;9354;50.194;7.690;2023-04-24T12:40:21;10.80;;;4.50;;
18449;SDS011;9354;50.194;7.690;2023-04-24T12:42:54;10.93;;;4.10;;
18449;SDS011;9354;50.194;7.690;2023-04-24T12:45:22;7.47;;;3.67;;
18449;SDS011;9354;50.194;7.690;2023-04-24T12:47:50;7.53;;;3.77;;
18449;SDS011;9354;50.194;7.690;2023-04-24T12:50:18;7.03;;;3.40;;
18449;SDS011;9354;50.194;7.690;2023-04-24T12:52:45;9.97;;;4.47;;
18449;SDS011;9354;50.194;7.690;2023-04-24T12:55:13;9.57;;;3.97;;
18449;SDS011;9354;50.194;7.690;2023-04-24T12:57:41;9.40;;;3.83;;
18449;SDS011;9354;50.194;7.690;2023-04-24T13:00:09;8.60;;;3.97;;
18449;SDS011;9354;50.194;7.690;2023-04-24T13:02:37;8.87;;;4.40;;
18449;SDS011;9354;50.194;7.690;2023-04-24T13:05:05;7.37;;;4.03;;
18449;SDS011;9354;50.194;7.690;2023-04-24T13:07:33;8.03;;;3.90;;
18449;SDS011;9354;50.194;7.690;2023-04-24T13:10:00;10.83;;;3.50;;
18449;SDS011;9354;50.194;7.690;2023-04-24T13:12:28;8.13;;;3.40;;
18449;SDS011;9354;50.194;7.690;2023-04-24T13:14:57;7.07;;;3.00;;
18449;SDS011;9354;50.194;7.690;2023-04-24T13:17:25;13.27;;;3.60;;
18449;SDS011;9354;50.194;7.690;2023-04-24T13:19:53;8.73;;;3.90;;
18449;SDS011;9354;50.194;7.690;2023-04-24T13:22:21;8.97;;;4.03;;
18449;SDS011;9354;50.194;7.690;2023-04-24T13:24:49;10.63;;;3.30;;
18449;SDS011;9354;50.194;7.690;2023-04-24T13:27:16;6.20;;;3.10;;
18449;SDS011;9354;50.194;7.690;2023-04-24T13:29:44;8.33;;;3.40;;
18449;SDS011;9354;50.194;7.690;2023-04-24T13:32:13;6.90;;;3.20;;
18449;SDS011;9354;50.194;7.690;2023-04-24T13:34:41;9.20;;;2.93;;
18449;SDS011;9354;50.194;7.690;2023-04-24T13:37:09;6.37;;;3.30;;
18449;SDS011;9354;50.194;7.690;2023-04-24T13:39:36;9.17;;;3.50;;
18449;SDS011;9354;50.194;7.690;2023-04-24T13:42:03;8.27;;;3.27;;
18449;SDS011;9354;50.194;7.690;2023-04-24T13:44:31;4.03;;;2.60;;
18449;SDS011;9354;50.194;7.690;2023-04-24T13:46:58;5.40;;;2.70;;
18449;SDS011;9354;50.194;7.690;2023-04-24T13:49:27;6.03;;;2.87;;
18449;SDS011;9354;50.194;7.690;2023-04-24T13:51:55;5.33;;;2.90;;
18449;SDS011;9354;50.194;7.690;2023-04-24T13:54:23;11.63;;;4.20;;
18449;SDS011;9354;50.194;7.690;2023-04-24T13:56:51;10.53;;;3.60;;
18449;SDS011;9354;50.194;7.690;2023-04-24T13:59:19;10.43;;;3.47;;
18449;SDS011;9354;50.194;7.690;2023-04-24T14:01:47;6.93;;;2.83;;
18449;SDS011;9354;50.194;7.690;2023-04-24T14:04:14;9.73;;;3.73;;
18449;SDS011;9354;50.194;7.690;2023-04-24T14:06:46;17.43;;;4.87;;
18449;SDS011;9354;50.194;7.690;2023-04-24T14:09:14;13.47;;;4.23;;
18449;SDS011;9354;50.194;7.690;2023-04-24T14:11:41;10.80;;;3.90;;
18449;SDS011;9354;50.194;7.690;2023-04-24T14:14:08;11.20;;;4.03;;
18449;SDS011;9354;50.194;7.690;2023-04-24T14:16:37;11.17;;;3.63;;
18449;SDS011;9354;50.194;7.690;2023-04-24T14:19:04;14.70;;;6.33;;
18449;SDS011;9354;50.194;7.690;2023-04-24T14:21:32;9.50;;;5.00;;
18449;SDS011;9354;50.194;7.690;2023-04-24T14:24:01;9.77;;;4.57;;
18449;SDS011;9354;50.194;7.690;2023-04-24T14:26:28;12.60;;;5.20;;
18449;SDS011;9354;50.194;7.690;2023-04-24T14:28:56;8.50;;;4.77;;
18449;SDS011;9354;50.194;7.690;2023-04-24T14:31:24;10.30;;;4.60;;
18449;SDS011;9354;50.194;7.690;2023-04-24T14:33:51;7.43;;;4.07;;
18449;SDS011;9354;50.194;7.690;2023-04-24T14:36:19;9.20;;;4.10;;
18449;SDS011;9354;50.194;7.690;2023-04-24T14:38:46;7.20;;;3.10;;
18449;SDS011;9354;50.194;7.690;2023-04-24T14:41:15;5.73;;;3.70;;
18449;SDS011;9354;50.194;7.690;2023-04-24T14:43:42;10.30;;;4.47;;
18449;SDS011;9354;50.194;7.690;2023-04-24T14:46:10;10.37;;;4.07;;
18449;SDS011;9354;50.194;7.690;2023-04-24T14:48:37;10.77;;;4.03;;
18449;SDS011;9354;50.194;7.690;2023-04-24T14:51:05;11.50;;;5.00;;
18449;SDS011;9354;50.194;7.690;2023-04-24T14:53:32;12.20;;;5.20;;
18449;SDS011;9354;50.194;7.690;2023-04-24T14:56:00;15.17;;;6.10;;
18449;SDS011;9354;50.194;7.690;2023-04-24T14:58:29;8.43;;;4.57;;
18449;SDS011;9354;50.194;7.690;2023-04-24T15:00:57;7.13;;;3.30;;
18449;SDS011;9354;50.194;7.690;2023-04-24T15:03:24;8.27;;;4.17;;
18449;SDS011;9354;50.194;7.690;2023-04-24T15:05:52;5.27;;;3.40;;
18449;SDS011;9354;50.194;7.690;2023-04-24T15:08:19;18.37;;;7.87;;
18449;SDS011;9354;50.194;7.690;2023-04-24T15:10:47;27.60;;;9.73;;
18449;SDS011;9354;50.194;7.690;2023-04-24T15:13:14;9.93;;;5.23;;